<?xml version="1.0" encoding="UTF-8" standalone="no" ?>
<gpx xmlns="http://www.topografix.com/GPX/1/1" xmlns:xsi="http://www.w3.org/2001/XMLSchema-instance" xsi:schemaLocation="http://www.topografix.com/GPX/1/1 http://www.topografix.com/GPX/1/1/gpx.xsd" version="1.1" creator="VisuGPX - https://www.visugpx.com">
  <metadata>
    <name>11611970-Montagne de beaune</name>
  </metadata>
  <trk>
    <name><![CDATA[11611970-Montagne de beaune]]></name>
    <trkseg>
      <trkpt lat="47.04225" lon="4.83547">
        <ele>230</ele>
        <time>2020-07-07T04:13:39Z</time>
      </trkpt>
      <trkpt lat="47.04247" lon="4.83483">
        <ele>229</ele>
        <time>2020-07-07T04:14:44Z</time>
      </trkpt>
      <trkpt lat="47.04264" lon="4.8333">
        <ele>228</ele>
        <time>2020-07-07T04:17:05Z</time>
      </trkpt>
      <trkpt lat="47.04375" lon="4.83231">
        <ele>229</ele>
        <time>2020-07-07T04:19:58Z</time>
      </trkpt>
      <trkpt lat="47.04436" lon="4.83163">
        <ele>232</ele>
        <time>2020-07-07T04:21:41Z</time>
      </trkpt>
      <trkpt lat="47.04526" lon="4.83198">
        <ele>235</ele>
        <time>2020-07-07T04:23:45Z</time>
      </trkpt>
      <trkpt lat="47.0458" lon="4.83201">
        <ele>238</ele>
        <time>2020-07-07T04:24:57Z</time>
      </trkpt>
      <trkpt lat="47.04618" lon="4.83217">
        <ele>241</ele>
        <time>2020-07-07T04:25:50Z</time>
      </trkpt>
      <trkpt lat="47.04647" lon="4.83257">
        <ele>242</ele>
        <time>2020-07-07T04:26:43Z</time>
      </trkpt>
      <trkpt lat="47.04726" lon="4.83304">
        <ele>247</ele>
        <time>2020-07-07T04:28:37Z</time>
      </trkpt>
      <trkpt lat="47.04857" lon="4.83167">
        <ele>259</ele>
        <time>2020-07-07T04:32:11Z</time>
      </trkpt>
      <trkpt lat="47.04936" lon="4.83008">
        <ele>286</ele>
        <time>2020-07-07T04:35:10Z</time>
      </trkpt>
      <trkpt lat="47.05088" lon="4.82948">
        <ele>296</ele>
        <time>2020-07-07T04:38:40Z</time>
      </trkpt>
      <trkpt lat="47.0511" lon="4.82929">
        <ele>300</ele>
        <time>2020-07-07T04:39:14Z</time>
      </trkpt>
      <trkpt lat="47.0512" lon="4.82884">
        <ele>307</ele>
        <time>2020-07-07T04:39:57Z</time>
      </trkpt>
      <trkpt lat="47.05075" lon="4.82829">
        <ele>312</ele>
        <time>2020-07-07T04:41:16Z</time>
      </trkpt>
      <trkpt lat="47.05047" lon="4.82734">
        <ele>320</ele>
        <time>2020-07-07T04:42:50Z</time>
      </trkpt>
      <trkpt lat="47.05006" lon="4.82575">
        <ele>328</ele>
        <time>2020-07-07T04:45:24Z</time>
      </trkpt>
      <trkpt lat="47.0501" lon="4.8251">
        <ele>330</ele>
        <time>2020-07-07T04:46:24Z</time>
      </trkpt>
      <trkpt lat="47.04992" lon="4.82433">
        <ele>331</ele>
        <time>2020-07-07T04:47:38Z</time>
      </trkpt>
      <trkpt lat="47.0496" lon="4.82375">
        <ele>331</ele>
        <time>2020-07-07T04:48:45Z</time>
      </trkpt>
      <trkpt lat="47.04936" lon="4.82279">
        <ele>330</ele>
        <time>2020-07-07T04:50:18Z</time>
      </trkpt>
      <trkpt lat="47.04889" lon="4.82225">
        <ele>329</ele>
        <time>2020-07-07T04:51:38Z</time>
      </trkpt>
      <trkpt lat="47.04875" lon="4.82172">
        <ele>332</ele>
        <time>2020-07-07T04:52:30Z</time>
      </trkpt>
      <trkpt lat="47.04931" lon="4.82084">
        <ele>336</ele>
        <time>2020-07-07T04:54:19Z</time>
      </trkpt>
      <trkpt lat="47.04971" lon="4.82055">
        <ele>336</ele>
        <time>2020-07-07T04:55:19Z</time>
      </trkpt>
      <trkpt lat="47.05053" lon="4.81984">
        <ele>338</ele>
        <time>2020-07-07T04:57:26Z</time>
      </trkpt>
      <trkpt lat="47.05146" lon="4.81924">
        <ele>341</ele>
        <time>2020-07-07T04:59:41Z</time>
      </trkpt>
      <trkpt lat="47.05316" lon="4.81901">
        <ele>343</ele>
        <time>2020-07-07T05:03:29Z</time>
      </trkpt>
      <trkpt lat="47.05349" lon="4.81652">
        <ele>326</ele>
        <time>2020-07-07T05:07:20Z</time>
      </trkpt>
      <trkpt lat="47.05376" lon="4.8148">
        <ele>315</ele>
        <time>2020-07-07T05:10:00Z</time>
      </trkpt>
      <trkpt lat="47.05399" lon="4.81412">
        <ele>313</ele>
        <time>2020-07-07T05:11:09Z</time>
      </trkpt>
      <trkpt lat="47.05448" lon="4.81447">
        <ele>310</ele>
        <time>2020-07-07T05:12:22Z</time>
      </trkpt>
      <trkpt lat="47.0551" lon="4.81466">
        <ele>310</ele>
        <time>2020-07-07T05:13:47Z</time>
      </trkpt>
      <trkpt lat="47.05642" lon="4.81438">
        <ele>323</ele>
        <time>2020-07-07T05:16:45Z</time>
      </trkpt>
      <trkpt lat="47.05802" lon="4.81399">
        <ele>320</ele>
        <time>2020-07-07T05:20:21Z</time>
      </trkpt>
      <trkpt lat="47.05885" lon="4.81386">
        <ele>312</ele>
        <time>2020-07-07T05:22:12Z</time>
      </trkpt>
      <trkpt lat="47.05888" lon="4.81309">
        <ele>321</ele>
        <time>2020-07-07T05:23:23Z</time>
      </trkpt>
      <trkpt lat="47.05901" lon="4.81208">
        <ele>329</ele>
        <time>2020-07-07T05:24:56Z</time>
      </trkpt>
      <trkpt lat="47.05912" lon="4.81073">
        <ele>332</ele>
        <time>2020-07-07T05:27:00Z</time>
      </trkpt>
      <trkpt lat="47.05917" lon="4.80836">
        <ele>335</ele>
        <time>2020-07-07T05:30:35Z</time>
      </trkpt>
      <trkpt lat="47.05889" lon="4.80551">
        <ele>348</ele>
        <time>2020-07-07T05:34:57Z</time>
      </trkpt>
      <trkpt lat="47.05959" lon="4.8053">
        <ele>348</ele>
        <time>2020-07-07T05:36:32Z</time>
      </trkpt>
      <trkpt lat="47.06021" lon="4.80536">
        <ele>351</ele>
        <time>2020-07-07T05:37:55Z</time>
      </trkpt>
      <trkpt lat="47.06054" lon="4.80417">
        <ele>361</ele>
        <time>2020-07-07T05:39:52Z</time>
      </trkpt>
      <trkpt lat="47.06051" lon="4.80279">
        <ele>369</ele>
        <time>2020-07-07T05:41:58Z</time>
      </trkpt>
      <trkpt lat="47.06033" lon="4.80051">
        <ele>377</ele>
        <time>2020-07-07T05:45:26Z</time>
      </trkpt>
      <trkpt lat="47.06002" lon="4.79758">
        <ele>375</ele>
        <time>2020-07-07T05:49:56Z</time>
      </trkpt>
      <trkpt lat="47.05987" lon="4.79547">
        <ele>376</ele>
        <time>2020-07-07T05:53:09Z</time>
      </trkpt>
      <trkpt lat="47.05991" lon="4.7951">
        <ele>376</ele>
        <time>2020-07-07T05:53:43Z</time>
      </trkpt>
      <trkpt lat="47.06077" lon="4.79558">
        <ele>373</ele>
        <time>2020-07-07T05:55:45Z</time>
      </trkpt>
      <trkpt lat="47.06129" lon="4.79622">
        <ele>368</ele>
        <time>2020-07-07T05:57:16Z</time>
      </trkpt>
      <trkpt lat="47.06181" lon="4.79662">
        <ele>363</ele>
        <time>2020-07-07T05:58:34Z</time>
      </trkpt>
      <trkpt lat="47.06334" lon="4.79802">
        <ele>343</ele>
        <time>2020-07-07T06:02:35Z</time>
      </trkpt>
      <trkpt lat="47.0639" lon="4.79862">
        <ele>336</ele>
        <time>2020-07-07T06:04:07Z</time>
      </trkpt>
      <trkpt lat="47.06458" lon="4.799">
        <ele>328</ele>
        <time>2020-07-07T06:05:45Z</time>
      </trkpt>
      <trkpt lat="47.06579" lon="4.79931">
        <ele>312</ele>
        <time>2020-07-07T06:08:28Z</time>
      </trkpt>
      <trkpt lat="47.06708" lon="4.80051">
        <ele>292</ele>
        <time>2020-07-07T06:11:52Z</time>
      </trkpt>
      <trkpt lat="47.06754" lon="4.8014">
        <ele>281</ele>
        <time>2020-07-07T06:13:34Z</time>
      </trkpt>
      <trkpt lat="47.06791" lon="4.80149">
        <ele>279</ele>
        <time>2020-07-07T06:14:24Z</time>
      </trkpt>
      <trkpt lat="47.06823" lon="4.80184">
        <ele>277</ele>
        <time>2020-07-07T06:15:17Z</time>
      </trkpt>
      <trkpt lat="47.06901" lon="4.80043">
        <ele>278</ele>
        <time>2020-07-07T06:18:02Z</time>
      </trkpt>
      <trkpt lat="47.06936" lon="4.79981">
        <ele>280</ele>
        <time>2020-07-07T06:19:15Z</time>
      </trkpt>
      <trkpt lat="47.06951" lon="4.79901">
        <ele>282</ele>
        <time>2020-07-07T06:20:31Z</time>
      </trkpt>
      <trkpt lat="47.07018" lon="4.79785">
        <ele>288</ele>
        <time>2020-07-07T06:22:49Z</time>
      </trkpt>
      <trkpt lat="47.07076" lon="4.79674">
        <ele>292</ele>
        <time>2020-07-07T06:24:56Z</time>
      </trkpt>
      <trkpt lat="47.071" lon="4.79596">
        <ele>294</ele>
        <time>2020-07-07T06:26:14Z</time>
      </trkpt>
      <trkpt lat="47.07108" lon="4.79515">
        <ele>296</ele>
        <time>2020-07-07T06:27:28Z</time>
      </trkpt>
      <trkpt lat="47.07129" lon="4.79279">
        <ele>301</ele>
        <time>2020-07-07T06:31:05Z</time>
      </trkpt>
      <trkpt lat="47.0715" lon="4.79152">
        <ele>301</ele>
        <time>2020-07-07T06:33:03Z</time>
      </trkpt>
      <trkpt lat="47.07189" lon="4.79022">
        <ele>301</ele>
        <time>2020-07-07T06:35:13Z</time>
      </trkpt>
      <trkpt lat="47.07247" lon="4.78892">
        <ele>305</ele>
        <time>2020-07-07T06:37:34Z</time>
      </trkpt>
      <trkpt lat="47.07307" lon="4.78812">
        <ele>305</ele>
        <time>2020-07-07T06:39:22Z</time>
      </trkpt>
      <trkpt lat="47.07399" lon="4.78703">
        <ele>304</ele>
        <time>2020-07-07T06:42:00Z</time>
      </trkpt>
      <trkpt lat="47.0757" lon="4.78511">
        <ele>311</ele>
        <time>2020-07-07T06:46:47Z</time>
      </trkpt>
      <trkpt lat="47.07746" lon="4.78318">
        <ele>317</ele>
        <time>2020-07-07T06:51:40Z</time>
      </trkpt>
      <trkpt lat="47.07883" lon="4.78167">
        <ele>316</ele>
        <time>2020-07-07T06:55:29Z</time>
      </trkpt>
      <trkpt lat="47.07948" lon="4.78107">
        <ele>317</ele>
        <time>2020-07-07T06:57:11Z</time>
      </trkpt>
      <trkpt lat="47.08017" lon="4.78077">
        <ele>312</ele>
        <time>2020-07-07T06:58:47Z</time>
      </trkpt>
      <trkpt lat="47.08123" lon="4.78013">
        <ele>313</ele>
        <time>2020-07-07T07:01:20Z</time>
      </trkpt>
      <trkpt lat="47.08199" lon="4.77967">
        <ele>320</ele>
        <time>2020-07-07T07:03:10Z</time>
      </trkpt>
      <trkpt lat="47.08338" lon="4.77964">
        <ele>321</ele>
        <time>2020-07-07T07:06:15Z</time>
      </trkpt>
      <trkpt lat="47.08542" lon="4.77948">
        <ele>317</ele>
        <time>2020-07-07T07:10:48Z</time>
      </trkpt>
      <trkpt lat="47.08632" lon="4.77922">
        <ele>314</ele>
        <time>2020-07-07T07:12:50Z</time>
      </trkpt>
      <trkpt lat="47.08687" lon="4.77887">
        <ele>318</ele>
        <time>2020-07-07T07:14:10Z</time>
      </trkpt>
      <trkpt lat="47.08695" lon="4.77848">
        <ele>322</ele>
        <time>2020-07-07T07:14:47Z</time>
      </trkpt>
      <trkpt lat="47.08738" lon="4.77828">
        <ele>330</ele>
        <time>2020-07-07T07:15:48Z</time>
      </trkpt>
      <trkpt lat="47.08762" lon="4.77776">
        <ele>341</ele>
        <time>2020-07-07T07:16:45Z</time>
      </trkpt>
      <trkpt lat="47.08783" lon="4.77671">
        <ele>352</ele>
        <time>2020-07-07T07:18:24Z</time>
      </trkpt>
      <trkpt lat="47.08862" lon="4.77553">
        <ele>372</ele>
        <time>2020-07-07T07:20:54Z</time>
      </trkpt>
      <trkpt lat="47.09072" lon="4.7735">
        <ele>409</ele>
        <time>2020-07-07T07:26:30Z</time>
      </trkpt>
      <trkpt lat="47.09322" lon="4.77238">
        <ele>444</ele>
        <time>2020-07-07T07:32:19Z</time>
      </trkpt>
      <trkpt lat="47.09447" lon="4.77145">
        <ele>461</ele>
        <time>2020-07-07T07:35:26Z</time>
      </trkpt>
      <trkpt lat="47.09499" lon="4.77071">
        <ele>461</ele>
        <time>2020-07-07T07:37:02Z</time>
      </trkpt>
      <trkpt lat="47.0966" lon="4.7692">
        <ele>469</ele>
        <time>2020-07-07T07:41:17Z</time>
      </trkpt>
      <trkpt lat="47.09708" lon="4.76917">
        <ele>475</ele>
        <time>2020-07-07T07:42:21Z</time>
      </trkpt>
      <trkpt lat="47.09785" lon="4.76885">
        <ele>470</ele>
        <time>2020-07-07T07:44:08Z</time>
      </trkpt>
      <trkpt lat="47.09878" lon="4.76882">
        <ele>478</ele>
        <time>2020-07-07T07:46:12Z</time>
      </trkpt>
      <trkpt lat="47.10003" lon="4.76825">
        <ele>479</ele>
        <time>2020-07-07T07:49:07Z</time>
      </trkpt>
      <trkpt lat="47.10098" lon="4.76825">
        <ele>485</ele>
        <time>2020-07-07T07:51:14Z</time>
      </trkpt>
      <trkpt lat="47.10216" lon="4.76849">
        <ele>489</ele>
        <time>2020-07-07T07:53:53Z</time>
      </trkpt>
      <trkpt lat="47.10272" lon="4.76815">
        <ele>486</ele>
        <time>2020-07-07T07:55:14Z</time>
      </trkpt>
      <trkpt lat="47.10339" lon="4.76631">
        <ele>481</ele>
        <time>2020-07-07T07:58:23Z</time>
      </trkpt>
      <trkpt lat="47.10372" lon="4.76519">
        <ele>475</ele>
        <time>2020-07-07T08:00:14Z</time>
      </trkpt>
      <trkpt lat="47.10394" lon="4.76485">
        <ele>476</ele>
        <time>2020-07-07T08:00:57Z</time>
      </trkpt>
      <trkpt lat="47.10406" lon="4.76422">
        <ele>478</ele>
        <time>2020-07-07T08:01:56Z</time>
      </trkpt>
      <trkpt lat="47.1039" lon="4.7636">
        <ele>479</ele>
        <time>2020-07-07T08:02:56Z</time>
      </trkpt>
      <trkpt lat="47.10405" lon="4.76265">
        <ele>486</ele>
        <time>2020-07-07T08:04:25Z</time>
      </trkpt>
      <trkpt lat="47.10441" lon="4.76159">
        <ele>500</ele>
        <time>2020-07-07T08:06:12Z</time>
      </trkpt>
      <trkpt lat="47.10453" lon="4.76059">
        <ele>508</ele>
        <time>2020-07-07T08:07:45Z</time>
      </trkpt>
      <trkpt lat="47.10454" lon="4.76013">
        <ele>511</ele>
        <time>2020-07-07T08:08:26Z</time>
      </trkpt>
      <trkpt lat="47.10437" lon="4.75993">
        <ele>511</ele>
        <time>2020-07-07T08:08:55Z</time>
      </trkpt>
      <trkpt lat="47.10356" lon="4.75992">
        <ele>513</ele>
        <time>2020-07-07T08:10:44Z</time>
      </trkpt>
      <trkpt lat="47.10317" lon="4.75968">
        <ele>521</ele>
        <time>2020-07-07T08:11:40Z</time>
      </trkpt>
      <trkpt lat="47.10193" lon="4.75961">
        <ele>530</ele>
        <time>2020-07-07T08:14:26Z</time>
      </trkpt>
      <trkpt lat="47.10133" lon="4.75937">
        <ele>530</ele>
        <time>2020-07-07T08:15:49Z</time>
      </trkpt>
      <trkpt lat="47.1009" lon="4.75937">
        <ele>527</ele>
        <time>2020-07-07T08:16:46Z</time>
      </trkpt>
      <trkpt lat="47.10017" lon="4.75901">
        <ele>522</ele>
        <time>2020-07-07T08:18:29Z</time>
      </trkpt>
      <trkpt lat="47.09922" lon="4.75788">
        <ele>510</ele>
        <time>2020-07-07T08:21:12Z</time>
      </trkpt>
      <trkpt lat="47.09894" lon="4.75712">
        <ele>504</ele>
        <time>2020-07-07T08:22:30Z</time>
      </trkpt>
      <trkpt lat="47.09885" lon="4.75663">
        <ele>506</ele>
        <time>2020-07-07T08:23:16Z</time>
      </trkpt>
      <trkpt lat="47.09856" lon="4.75636">
        <ele>499</ele>
        <time>2020-07-07T08:24:02Z</time>
      </trkpt>
      <trkpt lat="47.09843" lon="4.75604">
        <ele>500</ele>
        <time>2020-07-07T08:24:36Z</time>
      </trkpt>
      <trkpt lat="47.09733" lon="4.7546">
        <ele>491</ele>
        <time>2020-07-07T08:27:53Z</time>
      </trkpt>
      <trkpt lat="47.09672" lon="4.75413">
        <ele>485</ele>
        <time>2020-07-07T08:29:25Z</time>
      </trkpt>
      <trkpt lat="47.09601" lon="4.75388">
        <ele>476</ele>
        <time>2020-07-07T08:31:02Z</time>
      </trkpt>
      <trkpt lat="47.09568" lon="4.75423">
        <ele>469</ele>
        <time>2020-07-07T08:31:56Z</time>
      </trkpt>
      <trkpt lat="47.09556" lon="4.7555">
        <ele>461</ele>
        <time>2020-07-07T08:33:53Z</time>
      </trkpt>
      <trkpt lat="47.09504" lon="4.75651">
        <ele>461</ele>
        <time>2020-07-07T08:35:48Z</time>
      </trkpt>
      <trkpt lat="47.09421" lon="4.75721">
        <ele>457</ele>
        <time>2020-07-07T08:37:56Z</time>
      </trkpt>
      <trkpt lat="47.09319" lon="4.75678">
        <ele>466</ele>
        <time>2020-07-07T08:40:17Z</time>
      </trkpt>
      <trkpt lat="47.09253" lon="4.75626">
        <ele>477</ele>
        <time>2020-07-07T08:41:57Z</time>
      </trkpt>
      <trkpt lat="47.09" lon="4.75494">
        <ele>508</ele>
        <time>2020-07-07T08:47:55Z</time>
      </trkpt>
      <trkpt lat="47.08919" lon="4.75527">
        <ele>516</ele>
        <time>2020-07-07T08:49:48Z</time>
      </trkpt>
      <trkpt lat="47.08803" lon="4.75489">
        <ele>525</ele>
        <time>2020-07-07T08:52:26Z</time>
      </trkpt>
      <trkpt lat="47.08775" lon="4.75473">
        <ele>526</ele>
        <time>2020-07-07T08:53:06Z</time>
      </trkpt>
      <trkpt lat="47.08749" lon="4.75416">
        <ele>529</ele>
        <time>2020-07-07T08:54:09Z</time>
      </trkpt>
      <trkpt lat="47.0876" lon="4.75506">
        <ele>527</ele>
        <time>2020-07-07T08:55:32Z</time>
      </trkpt>
      <trkpt lat="47.08725" lon="4.75504">
        <ele>529</ele>
        <time>2020-07-07T08:56:19Z</time>
      </trkpt>
      <trkpt lat="47.0857" lon="4.75488">
        <ele>535</ele>
        <time>2020-07-07T08:59:46Z</time>
      </trkpt>
      <trkpt lat="47.08327" lon="4.75483">
        <ele>542</ele>
        <time>2020-07-07T09:05:10Z</time>
      </trkpt>
      <trkpt lat="47.08275" lon="4.75427">
        <ele>543</ele>
        <time>2020-07-07T09:06:36Z</time>
      </trkpt>
      <trkpt lat="47.08189" lon="4.75392">
        <ele>551</ele>
        <time>2020-07-07T09:08:35Z</time>
      </trkpt>
      <trkpt lat="47.08118" lon="4.75397">
        <ele>553</ele>
        <time>2020-07-07T09:10:10Z</time>
      </trkpt>
      <trkpt lat="47.08054" lon="4.75405">
        <ele>551</ele>
        <time>2020-07-07T09:11:36Z</time>
      </trkpt>
      <trkpt lat="47.08025" lon="4.75381">
        <ele>547</ele>
        <time>2020-07-07T09:12:20Z</time>
      </trkpt>
      <trkpt lat="47.07982" lon="4.75424">
        <ele>544</ele>
        <time>2020-07-07T09:13:30Z</time>
      </trkpt>
      <trkpt lat="47.07909" lon="4.75451">
        <ele>534</ele>
        <time>2020-07-07T09:15:10Z</time>
      </trkpt>
      <trkpt lat="47.07857" lon="4.75498">
        <ele>527</ele>
        <time>2020-07-07T09:16:32Z</time>
      </trkpt>
      <trkpt lat="47.07836" lon="4.75442">
        <ele>522</ele>
        <time>2020-07-07T09:17:30Z</time>
      </trkpt>
      <trkpt lat="47.07637" lon="4.75352">
        <ele>506</ele>
        <time>2020-07-07T09:22:08Z</time>
      </trkpt>
      <trkpt lat="47.07541" lon="4.75489">
        <ele>519</ele>
        <time>2020-07-07T09:25:06Z</time>
      </trkpt>
      <trkpt lat="47.07442" lon="4.75654">
        <ele>531</ele>
        <time>2020-07-07T09:28:26Z</time>
      </trkpt>
      <trkpt lat="47.07429" lon="4.75691">
        <ele>532</ele>
        <time>2020-07-07T09:29:04Z</time>
      </trkpt>
      <trkpt lat="47.074" lon="4.75739">
        <ele>534</ele>
        <time>2020-07-07T09:30:02Z</time>
      </trkpt>
      <trkpt lat="47.07356" lon="4.75761">
        <ele>534</ele>
        <time>2020-07-07T09:31:04Z</time>
      </trkpt>
      <trkpt lat="47.07329" lon="4.75744">
        <ele>535</ele>
        <time>2020-07-07T09:31:44Z</time>
      </trkpt>
      <trkpt lat="47.07269" lon="4.7567">
        <ele>535</ele>
        <time>2020-07-07T09:33:28Z</time>
      </trkpt>
      <trkpt lat="47.07164" lon="4.75592">
        <ele>534</ele>
        <time>2020-07-07T09:36:05Z</time>
      </trkpt>
      <trkpt lat="47.07067" lon="4.75561">
        <ele>531</ele>
        <time>2020-07-07T09:38:18Z</time>
      </trkpt>
      <trkpt lat="47.07024" lon="4.75507">
        <ele>529</ele>
        <time>2020-07-07T09:39:33Z</time>
      </trkpt>
      <trkpt lat="47.06982" lon="4.7547">
        <ele>526</ele>
        <time>2020-07-07T09:40:38Z</time>
      </trkpt>
      <trkpt lat="47.06965" lon="4.75425">
        <ele>527</ele>
        <time>2020-07-07T09:41:25Z</time>
      </trkpt>
      <trkpt lat="47.06769" lon="4.75395">
        <ele>528</ele>
        <time>2020-07-07T09:45:48Z</time>
      </trkpt>
      <trkpt lat="47.06597" lon="4.75408">
        <ele>526</ele>
        <time>2020-07-07T09:49:38Z</time>
      </trkpt>
      <trkpt lat="47.06468" lon="4.75472">
        <ele>522</ele>
        <time>2020-07-07T09:52:40Z</time>
      </trkpt>
      <trkpt lat="47.06421" lon="4.75528">
        <ele>518</ele>
        <time>2020-07-07T09:54:01Z</time>
      </trkpt>
      <trkpt lat="47.06343" lon="4.75708">
        <ele>506</ele>
        <time>2020-07-07T09:57:14Z</time>
      </trkpt>
      <trkpt lat="47.06305" lon="4.75786">
        <ele>502</ele>
        <time>2020-07-07T09:58:42Z</time>
      </trkpt>
      <trkpt lat="47.06229" lon="4.7579">
        <ele>496</ele>
        <time>2020-07-07T10:00:23Z</time>
      </trkpt>
      <trkpt lat="47.06167" lon="4.75756">
        <ele>496</ele>
        <time>2020-07-07T10:01:51Z</time>
      </trkpt>
      <trkpt lat="47.05904" lon="4.7576">
        <ele>481</ele>
        <time>2020-07-07T10:07:42Z</time>
      </trkpt>
      <trkpt lat="47.05702" lon="4.75773">
        <ele>467</ele>
        <time>2020-07-07T10:12:12Z</time>
      </trkpt>
      <trkpt lat="47.0567" lon="4.75863">
        <ele>459</ele>
        <time>2020-07-07T10:13:45Z</time>
      </trkpt>
      <trkpt lat="47.05542" lon="4.75876">
        <ele>447</ele>
        <time>2020-07-07T10:16:36Z</time>
      </trkpt>
      <trkpt lat="47.05422" lon="4.75923">
        <ele>439</ele>
        <time>2020-07-07T10:19:21Z</time>
      </trkpt>
      <trkpt lat="47.05378" lon="4.76095">
        <ele>428</ele>
        <time>2020-07-07T10:22:09Z</time>
      </trkpt>
      <trkpt lat="47.05334" lon="4.76172">
        <ele>427</ele>
        <time>2020-07-07T10:23:40Z</time>
      </trkpt>
      <trkpt lat="47.05243" lon="4.76245">
        <ele>430</ele>
        <time>2020-07-07T10:25:58Z</time>
      </trkpt>
      <trkpt lat="47.05188" lon="4.76343">
        <ele>431</ele>
        <time>2020-07-07T10:27:54Z</time>
      </trkpt>
      <trkpt lat="47.05226" lon="4.76507">
        <ele>426</ele>
        <time>2020-07-07T10:30:31Z</time>
      </trkpt>
      <trkpt lat="47.05211" lon="4.76725">
        <ele>413</ele>
        <time>2020-07-07T10:33:50Z</time>
      </trkpt>
      <trkpt lat="47.05199" lon="4.76949">
        <ele>401</ele>
        <time>2020-07-07T10:37:15Z</time>
      </trkpt>
      <trkpt lat="47.0517" lon="4.77">
        <ele>399</ele>
        <time>2020-07-07T10:38:15Z</time>
      </trkpt>
      <trkpt lat="47.05147" lon="4.77056">
        <ele>396</ele>
        <time>2020-07-07T10:39:15Z</time>
      </trkpt>
      <trkpt lat="47.05118" lon="4.77107">
        <ele>394</ele>
        <time>2020-07-07T10:40:15Z</time>
      </trkpt>
      <trkpt lat="47.05093" lon="4.77131">
        <ele>393</ele>
        <time>2020-07-07T10:40:55Z</time>
      </trkpt>
      <trkpt lat="47.0515" lon="4.7721">
        <ele>393</ele>
        <time>2020-07-07T10:42:39Z</time>
      </trkpt>
      <trkpt lat="47.05106" lon="4.77307">
        <ele>390</ele>
        <time>2020-07-07T10:44:25Z</time>
      </trkpt>
      <trkpt lat="47.0515" lon="4.7741">
        <ele>397</ele>
        <time>2020-07-07T10:46:16Z</time>
      </trkpt>
      <trkpt lat="47.05189" lon="4.77442">
        <ele>402</ele>
        <time>2020-07-07T10:47:16Z</time>
      </trkpt>
      <trkpt lat="47.05194" lon="4.77541">
        <ele>404</ele>
        <time>2020-07-07T10:48:46Z</time>
      </trkpt>
      <trkpt lat="47.05213" lon="4.77652">
        <ele>407</ele>
        <time>2020-07-07T10:50:30Z</time>
      </trkpt>
      <trkpt lat="47.05224" lon="4.77738">
        <ele>410</ele>
        <time>2020-07-07T10:51:49Z</time>
      </trkpt>
      <trkpt lat="47.05223" lon="4.77824">
        <ele>411</ele>
        <time>2020-07-07T10:53:08Z</time>
      </trkpt>
      <trkpt lat="47.05218" lon="4.77912">
        <ele>410</ele>
        <time>2020-07-07T10:54:28Z</time>
      </trkpt>
      <trkpt lat="47.05218" lon="4.77983">
        <ele>410</ele>
        <time>2020-07-07T10:55:33Z</time>
      </trkpt>
      <trkpt lat="47.05232" lon="4.78082">
        <ele>412</ele>
        <time>2020-07-07T10:57:04Z</time>
      </trkpt>
      <trkpt lat="47.05255" lon="4.78154">
        <ele>415</ele>
        <time>2020-07-07T10:58:17Z</time>
      </trkpt>
      <trkpt lat="47.05289" lon="4.78279">
        <ele>413</ele>
        <time>2020-07-07T11:00:19Z</time>
      </trkpt>
      <trkpt lat="47.05318" lon="4.78403">
        <ele>408</ele>
        <time>2020-07-07T11:02:18Z</time>
      </trkpt>
      <trkpt lat="47.05349" lon="4.78532">
        <ele>404</ele>
        <time>2020-07-07T11:04:23Z</time>
      </trkpt>
      <trkpt lat="47.05381" lon="4.78648">
        <ele>399</ele>
        <time>2020-07-07T11:06:16Z</time>
      </trkpt>
      <trkpt lat="47.05388" lon="4.78704">
        <ele>395</ele>
        <time>2020-07-07T11:07:08Z</time>
      </trkpt>
      <trkpt lat="47.05376" lon="4.78757">
        <ele>392</ele>
        <time>2020-07-07T11:07:59Z</time>
      </trkpt>
      <trkpt lat="47.05357" lon="4.78807">
        <ele>388</ele>
        <time>2020-07-07T11:08:51Z</time>
      </trkpt>
      <trkpt lat="47.05338" lon="4.78869">
        <ele>385</ele>
        <time>2020-07-07T11:09:53Z</time>
      </trkpt>
      <trkpt lat="47.05338" lon="4.78923">
        <ele>382</ele>
        <time>2020-07-07T11:10:42Z</time>
      </trkpt>
      <trkpt lat="47.05318" lon="4.79004">
        <ele>375</ele>
        <time>2020-07-07T11:12:00Z</time>
      </trkpt>
      <trkpt lat="47.05308" lon="4.7906">
        <ele>371</ele>
        <time>2020-07-07T11:12:53Z</time>
      </trkpt>
      <trkpt lat="47.05297" lon="4.79152">
        <ele>362</ele>
        <time>2020-07-07T11:14:18Z</time>
      </trkpt>
      <trkpt lat="47.0529" lon="4.79199">
        <ele>357</ele>
        <time>2020-07-07T11:15:02Z</time>
      </trkpt>
      <trkpt lat="47.05299" lon="4.79234">
        <ele>353</ele>
        <time>2020-07-07T11:15:36Z</time>
      </trkpt>
      <trkpt lat="47.05283" lon="4.7929">
        <ele>347</ele>
        <time>2020-07-07T11:16:31Z</time>
      </trkpt>
      <trkpt lat="47.05302" lon="4.79324">
        <ele>344</ele>
        <time>2020-07-07T11:17:11Z</time>
      </trkpt>
      <trkpt lat="47.05324" lon="4.7935">
        <ele>344</ele>
        <time>2020-07-07T11:17:48Z</time>
      </trkpt>
      <trkpt lat="47.05327" lon="4.79388">
        <ele>343</ele>
        <time>2020-07-07T11:18:23Z</time>
      </trkpt>
      <trkpt lat="47.05325" lon="4.79433">
        <ele>342</ele>
        <time>2020-07-07T11:19:04Z</time>
      </trkpt>
      <trkpt lat="47.05335" lon="4.79539">
        <ele>341</ele>
        <time>2020-07-07T11:20:42Z</time>
      </trkpt>
      <trkpt lat="47.05297" lon="4.79601">
        <ele>335</ele>
        <time>2020-07-07T11:21:57Z</time>
      </trkpt>
      <trkpt lat="47.05259" lon="4.79648">
        <ele>332</ele>
        <time>2020-07-07T11:23:04Z</time>
      </trkpt>
      <trkpt lat="47.05186" lon="4.79727">
        <ele>330</ele>
        <time>2020-07-07T11:25:05Z</time>
      </trkpt>
      <trkpt lat="47.05129" lon="4.79807">
        <ele>337</ele>
        <time>2020-07-07T11:26:50Z</time>
      </trkpt>
      <trkpt lat="47.05049" lon="4.79845">
        <ele>347</ele>
        <time>2020-07-07T11:28:42Z</time>
      </trkpt>
      <trkpt lat="47.0497" lon="4.79893">
        <ele>358</ele>
        <time>2020-07-07T11:30:36Z</time>
      </trkpt>
      <trkpt lat="47.04932" lon="4.79959">
        <ele>369</ele>
        <time>2020-07-07T11:31:55Z</time>
      </trkpt>
      <trkpt lat="47.04847" lon="4.80028">
        <ele>376</ele>
        <time>2020-07-07T11:34:04Z</time>
      </trkpt>
      <trkpt lat="47.0474" lon="4.80026">
        <ele>364</ele>
        <time>2020-07-07T11:36:27Z</time>
      </trkpt>
      <trkpt lat="47.04669" lon="4.80084">
        <ele>364</ele>
        <time>2020-07-07T11:38:16Z</time>
      </trkpt>
      <trkpt lat="47.046" lon="4.8018">
        <ele>366</ele>
        <time>2020-07-07T11:40:23Z</time>
      </trkpt>
      <trkpt lat="47.046" lon="4.8021">
        <ele>370</ele>
        <time>2020-07-07T11:40:50Z</time>
      </trkpt>
      <trkpt lat="47.04539" lon="4.8029">
        <ele>370</ele>
        <time>2020-07-07T11:42:39Z</time>
      </trkpt>
      <trkpt lat="47.04479" lon="4.80375">
        <ele>369</ele>
        <time>2020-07-07T11:44:30Z</time>
      </trkpt>
      <trkpt lat="47.04419" lon="4.80513">
        <ele>371</ele>
        <time>2020-07-07T11:46:59Z</time>
      </trkpt>
      <trkpt lat="47.04376" lon="4.80714">
        <ele>363</ele>
        <time>2020-07-07T11:50:11Z</time>
      </trkpt>
      <trkpt lat="47.04327" lon="4.8077">
        <ele>359</ele>
        <time>2020-07-07T11:51:34Z</time>
      </trkpt>
      <trkpt lat="47.04308" lon="4.80862">
        <ele>360</ele>
        <time>2020-07-07T11:53:01Z</time>
      </trkpt>
      <trkpt lat="47.04283" lon="4.80993">
        <ele>363</ele>
        <time>2020-07-07T11:55:05Z</time>
      </trkpt>
      <trkpt lat="47.04251" lon="4.81116">
        <ele>363</ele>
        <time>2020-07-07T11:57:05Z</time>
      </trkpt>
      <trkpt lat="47.04218" lon="4.81206">
        <ele>361</ele>
        <time>2020-07-07T11:58:37Z</time>
      </trkpt>
      <trkpt lat="47.04195" lon="4.81285">
        <ele>358</ele>
        <time>2020-07-07T11:59:56Z</time>
      </trkpt>
      <trkpt lat="47.0417" lon="4.81339">
        <ele>355</ele>
        <time>2020-07-07T12:00:55Z</time>
      </trkpt>
      <trkpt lat="47.04207" lon="4.81354">
        <ele>359</ele>
        <time>2020-07-07T12:01:46Z</time>
      </trkpt>
      <trkpt lat="47.04217" lon="4.81431">
        <ele>360</ele>
        <time>2020-07-07T12:02:57Z</time>
      </trkpt>
      <trkpt lat="47.0428" lon="4.81506">
        <ele>365</ele>
        <time>2020-07-07T12:04:46Z</time>
      </trkpt>
      <trkpt lat="47.04319" lon="4.81579">
        <ele>366</ele>
        <time>2020-07-07T12:06:10Z</time>
      </trkpt>
      <trkpt lat="47.04386" lon="4.81618">
        <ele>365</ele>
        <time>2020-07-07T12:07:46Z</time>
      </trkpt>
      <trkpt lat="47.04448" lon="4.81635">
        <ele>365</ele>
        <time>2020-07-07T12:09:10Z</time>
      </trkpt>
      <trkpt lat="47.04473" lon="4.81644">
        <ele>363</ele>
        <time>2020-07-07T12:09:45Z</time>
      </trkpt>
      <trkpt lat="47.04539" lon="4.81682">
        <ele>358</ele>
        <time>2020-07-07T12:11:19Z</time>
      </trkpt>
      <trkpt lat="47.04599" lon="4.81699">
        <ele>361</ele>
        <time>2020-07-07T12:12:41Z</time>
      </trkpt>
      <trkpt lat="47.04644" lon="4.81714">
        <ele>368</ele>
        <time>2020-07-07T12:13:42Z</time>
      </trkpt>
      <trkpt lat="47.04686" lon="4.81766">
        <ele>371</ele>
        <time>2020-07-07T12:14:56Z</time>
      </trkpt>
      <trkpt lat="47.04737" lon="4.81824">
        <ele>373</ele>
        <time>2020-07-07T12:16:22Z</time>
      </trkpt>
      <trkpt lat="47.04775" lon="4.81824">
        <ele>374</ele>
        <time>2020-07-07T12:17:13Z</time>
      </trkpt>
      <trkpt lat="47.04799" lon="4.81925">
        <ele>361</ele>
        <time>2020-07-07T12:18:50Z</time>
      </trkpt>
      <trkpt lat="47.04756" lon="4.8206">
        <ele>344</ele>
        <time>2020-07-07T12:21:05Z</time>
      </trkpt>
      <trkpt lat="47.04727" lon="4.82234">
        <ele>331</ele>
        <time>2020-07-07T12:23:48Z</time>
      </trkpt>
      <trkpt lat="47.04692" lon="4.823">
        <ele>325</ele>
        <time>2020-07-07T12:25:04Z</time>
      </trkpt>
      <trkpt lat="47.04653" lon="4.82343">
        <ele>319</ele>
        <time>2020-07-07T12:26:09Z</time>
      </trkpt>
      <trkpt lat="47.04562" lon="4.8239">
        <ele>308</ele>
        <time>2020-07-07T12:28:18Z</time>
      </trkpt>
      <trkpt lat="47.04493" lon="4.82431">
        <ele>298</ele>
        <time>2020-07-07T12:29:57Z</time>
      </trkpt>
      <trkpt lat="47.04493" lon="4.82498">
        <ele>292</ele>
        <time>2020-07-07T12:30:58Z</time>
      </trkpt>
      <trkpt lat="47.04397" lon="4.82485">
        <ele>276</ele>
        <time>2020-07-07T12:33:07Z</time>
      </trkpt>
      <trkpt lat="47.04313" lon="4.82431">
        <ele>267</ele>
        <time>2020-07-07T12:35:09Z</time>
      </trkpt>
      <trkpt lat="47.0424" lon="4.82431">
        <ele>257</ele>
        <time>2020-07-07T12:36:47Z</time>
      </trkpt>
      <trkpt lat="47.04135" lon="4.82467">
        <ele>247</ele>
        <time>2020-07-07T12:39:11Z</time>
      </trkpt>
      <trkpt lat="47.0423" lon="4.8257">
        <ele>246</ele>
        <time>2020-07-07T12:41:48Z</time>
      </trkpt>
      <trkpt lat="47.04312" lon="4.82673">
        <ele>244</ele>
        <time>2020-07-07T12:44:12Z</time>
      </trkpt>
      <trkpt lat="47.0437" lon="4.82712">
        <ele>246</ele>
        <time>2020-07-07T12:45:38Z</time>
      </trkpt>
      <trkpt lat="47.04334" lon="4.82817">
        <ele>237</ele>
        <time>2020-07-07T12:47:24Z</time>
      </trkpt>
      <trkpt lat="47.04359" lon="4.8289">
        <ele>234</ele>
        <time>2020-07-07T12:48:39Z</time>
      </trkpt>
      <trkpt lat="47.0436" lon="4.8292">
        <ele>233</ele>
        <time>2020-07-07T12:49:06Z</time>
      </trkpt>
      <trkpt lat="47.04338" lon="4.82963">
        <ele>230</ele>
        <time>2020-07-07T12:49:55Z</time>
      </trkpt>
      <trkpt lat="47.04324" lon="4.83038">
        <ele>228</ele>
        <time>2020-07-07T12:51:06Z</time>
      </trkpt>
      <trkpt lat="47.043" lon="4.83066">
        <ele>227</ele>
        <time>2020-07-07T12:51:47Z</time>
      </trkpt>
      <trkpt lat="47.04286" lon="4.83161">
        <ele>227</ele>
        <time>2020-07-07T12:53:15Z</time>
      </trkpt>
      <trkpt lat="47.04237" lon="4.8351">
        <ele>229</ele>
        <time>2020-07-07T12:58:39Z</time>
      </trkpt>
    </trkseg>
  </trk>
</gpx>